หน้าหลัก
METAR-TAF:

METAR-TAF

ท่าอากาศยาน :

Ermelo, แอฟริกาใต้

ละติจูด: 26-29-44S, ลองจิจูด: 29-58-47E, ความสูง: 1737 ม.

การสังเกตสภาพอากาศปัจจุบัน

รายงานได้ทำขึ้นเมื่อ 16 ชั่วโมงและ 24 นาทีที่แล้ว ณ เวลา 07:30 UTC
ลม 2 นอตจากตะวันออกเฉียงใต้
อุณหภูมิ 18°C
ความชื้น 37%
ความกดอากาศ 1029 hPa

METAR: FAEO 240730Z AUTO 13002KT //// // ////// 18/03 Q1029

เวลา: 01:54 (23:54 UTC)


TAF: หายไป

สังเกตการณ์สภาพอากาศและพยากรณ์อากาศของสนามบินมากกว่า 4000 แห่ง (รายงาน METAR และ TAF).

สถานีที่ดูได้จะแสดงไว้ด้วยจุดสีเหลืองและสีแดงบนแผนที่.

เลื่อนเมาส์ไปเหนือจุดเพื่อดูชื่อสถานี.

แล้วคลิกเพื่อดูสังเกตการณ์และการพยากรณ์สภาพอากาศ.

ในการเปลี่ยนแผนที่: คลิกที่ปุ่มสีเขียวที่มีกากบาทสีดำเพื่อซูมเข้า; ที่ปุ่มสีเขียวที่มีขีดเพื่อซูมออก; หรือที่ลูกศรสีเขียวเพื่อไปยังแผนที่ที่อยู่ติดกัน.


METAR-TAF: